Аэропорт: Минеральные Воды. Минеральные Воды

ICAO: URMM

METAR:
2022-06-26 11:00:00
URMM 261100Z VRB01MPS 9999 -RA OVC045 18/16 Q1009 R30/290150 NOSIG RMK QFE728/0971
METAR:
2022-06-26 09:39:00
TAF AMD URMM 260939Z 2609/2709 28003G08MPS 9999 BKN030 TX22/2612Z TN16/2702Z TEMPO 2609/2709 30005G13MPS 1000 TSRA BKN002 BKN030CB